Time;durP1;ratioP1;P1;durP2;ratioP2;P2;SDS_P1;SDS_P2;PMS_P1;PMS_P2;Temp;Humidity;BMP_temperature;BMP_pressure;BME280_temperature;BME280_humidity;BME280_pressure;Samples;Min_cycle;Max_cycle;Signal;HPM_P1;HPM_P2
2022/07/17 00:01:14;;;;;;;11.30;7.32;;;;;;;;;;5076811;28;20036;-72
2022/07/17 00:03:39;;;;;;;14.13;7.28;;;;;;;;;;5081314;28;20032;-72
2022/07/17 00:06:04;;;;;;;11.88;6.80;;;;;;;;;;5086658;28;20038;-72
2022/07/17 00:08:31;;;;;;;12.55;7.13;;;;;;;;;;5078927;28;20029;-72
2022/07/17 00:10:57;;;;;;;13.40;6.80;;;;;;;;;;5077251;28;20039;-72
2022/07/17 00:13:22;;;;;;;10.50;6.57;;;;;;;;;;5076284;28;20028;-72
2022/07/17 00:15:48;;;;;;;12.13;6.75;;;;;;;;;;5080729;28;20470;-72
2022/07/17 00:18:13;;;;;;;12.52;7.30;;;;;;;;;;5084643;28;20356;-72
2022/07/17 00:20:38;;;;;;;10.55;6.63;;;;;;;;;;5088279;28;20068;-72
2022/07/17 00:23:03;;;;;;;11.43;6.93;;;;;;;;;;5079082;28;20119;-72
2022/07/17 00:25:29;;;;;;;13.25;6.47;;;;;;;;;;5080291;28;20368;-72
2022/07/17 00:27:54;;;;;;;12.93;7.35;;;;;;;;;;5083375;28;20451;-72
2022/07/17 00:30:20;;;;;;;9.77;6.78;;;;;;;;;;5075186;28;20044;-72
2022/07/17 00:32:45;;;;;;;12.50;6.78;;;;;;;;;;5079154;28;20024;-72
2022/07/17 00:35:11;;;;;;;13.73;7.13;;;;;;;;;;5075099;28;20024;-72
2022/07/17 00:37:40;;;;;;;13.90;7.30;;;;;;;;;;5083145;28;20105;-72
2022/07/17 00:40:06;;;;;;;11.52;6.28;;;;;;;;;;5061310;28;20052;-72
2022/07/17 00:42:31;;;;;;;12.65;7.07;;;;;;;;;;5087263;28;20502;-72
2022/07/17 00:44:57;;;;;;;11.88;6.93;;;;;;;;;;5080948;28;20071;-72
2022/07/17 00:47:22;;;;;;;13.85;7.00;;;;;;;;;;5079247;28;20375;-72
2022/07/17 00:49:47;;;;;;;15.15;6.95;;;;;;;;;;5075980;28;20020;-72
2022/07/17 00:52:13;;;;;;;12.32;6.75;;;;;;;;;;5082282;28;20502;-72
2022/07/17 00:54:39;;;;;;;12.55;7.53;;;;;;;;;;5078311;28;20087;-72
2022/07/17 00:57:09;;;;;;;12.77;7.72;;;;;;;;;;5080781;28;20103;-72
2022/07/17 00:59:35;;;;;;;13.32;7.55;;;;;;;;;;5080116;28;20537;-72
2022/07/17 01:02:04;;;;;;;12.98;7.55;;;;;;;;;;5088083;28;20037;-72
2022/07/17 01:04:30;;;;;;;15.13;8.60;;;;;;;;;;5077912;28;20025;-72
2022/07/17 01:06:55;;;;;;;14.65;7.38;;;;;;;;;;5083470;28;20530;-72
2022/07/17 01:09:21;;;;;;;13.25;7.55;;;;;;;;;;5085538;28;20099;-73
2022/07/17 01:11:46;;;;;;;14.57;7.82;;;;;;;;;;5080347;28;20027;-72
2022/07/17 01:14:11;;;;;;;15.07;8.48;;;;;;;;;;5087747;28;20437;-72
2022/07/17 01:16:37;;;;;;;19.88;9.07;;;;;;;;;;5081513;28;20020;-72
2022/07/17 01:19:02;;;;;;;17.48;8.50;;;;;;;;;;5079192;28;20039;-72
2022/07/17 01:21:41;;;;;;;14.68;8.50;;;;;;;;;;5090451;28;20079;-72
2022/07/17 01:24:07;;;;;;;20.52;8.60;;;;;;;;;;5062556;28;20438;-72
2022/07/17 01:26:32;;;;;;;15.10;8.70;;;;;;;;;;5074638;28;20054;-72
2022/07/17 01:28:57;;;;;;;17.95;9.27;;;;;;;;;;5074454;28;20436;-72
2022/07/17 01:31:23;;;;;;;16.83;8.52;;;;;;;;;;5074492;28;20102;-72
2022/07/17 01:33:48;;;;;;;18.10;8.75;;;;;;;;;;5075847;28;20150;-72
2022/07/17 01:36:13;;;;;;;14.45;8.52;;;;;;;;;;5075237;28;20085;-72
2022/07/17 01:38:39;;;;;;;16.13;8.40;;;;;;;;;;5086342;28;20101;-72
2022/07/17 01:41:04;;;;;;;18.55;9.25;;;;;;;;;;5085837;28;20044;-72
2022/07/17 01:43:29;;;;;;;17.15;8.30;;;;;;;;;;5090389;28;20395;-72
2022/07/17 01:45:55;;;;;;;15.27;8.55;;;;;;;;;;5073492;28;20082;-72
2022/07/17 01:48:24;;;;;;;14.00;8.38;;;;;;;;;;5077063;28;20032;-72
2022/07/17 01:50:49;;;;;;;17.45;9.30;;;;;;;;;;5076568;28;20029;-72
2022/07/17 01:53:14;;;;;;;18.17;8.40;;;;;;;;;;5075929;28;20098;-72
2022/07/17 01:55:40;;;;;;;14.20;8.02;;;;;;;;;;5076226;28;20036;-72
2022/07/17 01:58:05;;;;;;;17.63;8.85;;;;;;;;;;5075699;28;20056;-72
2022/07/17 02:00:30;;;;;;;15.90;8.00;;;;;;;;;;5073371;28;20468;-72
2022/07/17 02:02:55;;;;;;;16.65;8.35;;;;;;;;;;5073139;28;20118;-72
2022/07/17 02:05:21;;;;;;;16.98;7.70;;;;;;;;;;5077033;28;20056;-72
2022/07/17 02:07:46;;;;;;;13.77;7.82;;;;;;;;;;5080491;28;20086;-72
2022/07/17 02:10:13;;;;;;;15.13;8.07;;;;;;;;;;5077023;28;20031;-72
2022/07/17 02:12:39;;;;;;;16.42;8.18;;;;;;;;;;5076623;28;20024;-72
2022/07/17 02:15:04;;;;;;;14.02;7.82;;;;;;;;;;5079026;28;20368;-72
2022/07/17 02:17:30;;;;;;;13.55;8.00;;;;;;;;;;5074810;28;20430;-73
2022/07/17 02:19:55;;;;;;;13.07;7.80;;;;;;;;;;5079905;28;20024;-73
2022/07/17 02:22:20;;;;;;;14.82;8.23;;;;;;;;;;5079768;28;20372;-72
2022/07/17 02:24:45;;;;;;;17.70;7.97;;;;;;;;;;5080698;28;20032;-73
2022/07/17 02:27:11;;;;;;;13.25;7.93;;;;;;;;;;5091335;28;20027;-72
2022/07/17 02:29:36;;;;;;;14.77;8.45;;;;;;;;;;5083940;28;20024;-72
2022/07/17 02:32:01;;;;;;;15.45;7.47;;;;;;;;;;5086811;28;20085;-72
2022/07/17 02:34:26;;;;;;;13.93;8.20;;;;;;;;;;5085869;28;20150;-72
2022/07/17 02:36:52;;;;;;;10.43;6.70;;;;;;;;;;5090944;28;20468;-72
2022/07/17 02:39:17;;;;;;;12.20;7.03;;;;;;;;;;5073951;28;20056;-72
2022/07/17 02:41:42;;;;;;;14.07;7.50;;;;;;;;;;5076457;28;20036;-72
2022/07/17 02:44:08;;;;;;;11.82;7.40;;;;;;;;;;5077872;28;20056;-72
2022/07/17 02:46:33;;;;;;;12.35;6.85;;;;;;;;;;5072907;28;20032;-72
2022/07/17 02:48:58;;;;;;;14.65;7.45;;;;;;;;;;5075898;28;20020;-72
2022/07/17 02:51:24;;;;;;;10.23;6.70;;;;;;;;;;5080567;28;20050;-72
2022/07/17 02:53:49;;;;;;;12.38;6.88;;;;;;;;;;5080635;28;20055;-72
2022/07/17 02:56:14;;;;;;;11.35;7.10;;;;;;;;;;5080814;28;20024;-72
2022/07/17 02:58:39;;;;;;;12.52;7.90;;;;;;;;;;5082814;28;20162;-72
2022/07/17 03:01:05;;;;;;;13.45;7.55;;;;;;;;;;5075627;28;20877;-72
2022/07/17 03:03:30;;;;;;;12.70;7.10;;;;;;;;;;5074251;28;20028;-72
2022/07/17 03:05:55;;;;;;;12.07;6.93;;;;;;;;;;5083240;28;20375;-72
2022/07/17 03:08:21;;;;;;;12.32;7.22;;;;;;;;;;5088468;28;20036;-72
2022/07/17 03:10:46;;;;;;;16.83;7.90;;;;;;;;;;5082898;28;20035;-72
2022/07/17 03:13:11;;;;;;;13.95;7.70;;;;;;;;;;5078383;28;20024;-72
2022/07/17 03:15:36;;;;;;;13.07;6.90;;;;;;;;;;5076803;28;20036;-71
2022/07/17 03:18:02;;;;;;;13.20;7.93;;;;;;;;;;5076447;28;20021;-72
2022/07/17 03:20:27;;;;;;;13.07;7.50;;;;;;;;;;5078517;28;20066;-72
2022/07/17 03:22:52;;;;;;;21.42;8.32;;;;;;;;;;5094848;28;20058;-72
2022/07/17 03:25:18;;;;;;;14.68;7.93;;;;;;;;;;5080450;28;20479;-71
2022/07/17 03:27:43;;;;;;;15.73;7.03;;;;;;;;;;5087497;28;20040;-72
2022/07/17 03:30:08;;;;;;;17.65;8.23;;;;;;;;;;5078444;28;20036;-72
2022/07/17 03:32:34;;;;;;;20.30;9.27;;;;;;;;;;5084923;28;20028;-72
2022/07/17 03:35:00;;;;;;;17.17;8.35;;;;;;;;;;5079739;28;20446;-72
2022/07/17 03:37:27;;;;;;;19.02;8.75;;;;;;;;;;5084911;28;20029;-72
2022/07/17 03:39:52;;;;;;;17.15;8.88;;;;;;;;;;5078051;28;20103;-72
2022/07/17 03:42:17;;;;;;;22.70;9.18;;;;;;;;;;5075850;28;20463;-72
2022/07/17 03:44:43;;;;;;;19.60;9.23;;;;;;;;;;5079122;28;20115;-72
2022/07/17 03:47:08;;;;;;;21.92;9.70;;;;;;;;;;5076175;28;20101;-72
2022/07/17 03:49:33;;;;;;;18.63;9.07;;;;;;;;;;5082156;28;20024;-72
2022/07/17 03:51:59;;;;;;;17.48;8.93;;;;;;;;;;5090001;28;20036;-72
2022/07/17 03:54:24;;;;;;;21.05;8.70;;;;;;;;;;5083668;28;20024;-72
2022/07/17 03:56:49;;;;;;;19.95;8.50;;;;;;;;;;5079088;28;20036;-72
2022/07/17 03:59:14;;;;;;;19.02;9.20;;;;;;;;;;5084754;28;20098;-72
2022/07/17 04:01:40;;;;;;;21.75;10.00;;;;;;;;;;5087083;28;20052;-72
2022/07/17 04:04:05;;;;;;;18.58;8.93;;;;;;;;;;5068327;28;20523;-72
2022/07/17 04:06:30;;;;;;;21.08;9.07;;;;;;;;;;5088252;28;20503;-72
2022/07/17 04:08:56;;;;;;;22.35;9.20;;;;;;;;;;5087848;28;20013;-72
2022/07/17 04:11:21;;;;;;;16.70;9.02;;;;;;;;;;5078561;28;20111;-71
2022/07/17 04:13:47;;;;;;;20.27;9.40;;;;;;;;;;5088774;28;20024;-72
2022/07/17 04:16:12;;;;;;;16.90;8.75;;;;;;;;;;5078139;28;20020;-72
2022/07/17 04:18:38;;;;;;;17.27;9.82;;;;;;;;;;5078656;28;20046;-72
2022/07/17 04:21:05;;;;;;;18.33;8.80;;;;;;;;;;5088561;28;20508;-72
2022/07/17 04:23:31;;;;;;;19.73;9.85;;;;;;;;;;5077263;28;20085;-72
2022/07/17 04:25:57;;;;;;;24.30;8.95;;;;;;;;;;5083996;28;20028;-72
2022/07/17 04:28:22;;;;;;;20.58;9.65;;;;;;;;;;5079007;28;20483;-72
2022/07/17 04:30:48;;;;;;;24.25;10.18;;;;;;;;;;5081165;28;20025;-72
2022/07/17 04:33:14;;;;;;;18.83;9.38;;;;;;;;;;5080896;28;20065;-72
2022/07/17 04:35:40;;;;;;;15.75;8.73;;;;;;;;;;5076593;28;20039;-72
2022/07/17 04:38:06;;;;;;;20.73;9.60;;;;;;;;;;5079892;28;20087;-72
2022/07/17 04:40:31;;;;;;;24.52;8.95;;;;;;;;;;5077137;28;20045;-72
2022/07/17 04:42:56;;;;;;;19.92;8.70;;;;;;;;;;5084359;28;20065;-72
2022/07/17 04:45:22;;;;;;;18.48;8.82;;;;;;;;;;5076913;28;20052;-72
2022/07/17 04:47:47;;;;;;;17.00;7.72;;;;;;;;;;5076629;28;20025;-72
2022/07/17 04:50:12;;;;;;;15.38;8.40;;;;;;;;;;5077272;28;20036;-72
2022/07/17 04:52:38;;;;;;;16.08;7.70;;;;;;;;;;5081217;28;20013;-72
2022/07/17 04:55:03;;;;;;;13.10;7.68;;;;;;;;;;5077116;28;20376;-72
2022/07/17 04:57:28;;;;;;;14.80;7.72;;;;;;;;;;5077635;28;20042;-72
2022/07/17 04:59:54;;;;;;;17.13;7.90;;;;;;;;;;5077960;28;20028;-72
2022/07/17 05:02:19;;;;;;;13.00;7.32;;;;;;;;;;5074865;28;20074;-72
2022/07/17 05:04:44;;;;;;;12.55;7.22;;;;;;;;;;5077220;28;20468;-72
2022/07/17 05:07:10;;;;;;;10.10;6.05;;;;;;;;;;5075690;28;20475;-72
2022/07/17 05:09:35;;;;;;;9.60;5.85;;;;;;;;;;5082412;28;20451;-71
2022/07/17 05:12:00;;;;;;;10.20;5.65;;;;;;;;;;5082700;28;20058;-71
2022/07/17 05:14:25;;;;;;;11.05;6.07;;;;;;;;;;5084495;28;20042;-72
2022/07/17 05:16:51;;;;;;;8.45;5.05;;;;;;;;;;5074869;28;20024;-72
2022/07/17 05:19:16;;;;;;;8.20;5.53;;;;;;;;;;5074543;28;20043;-72
2022/07/17 05:21:41;;;;;;;8.98;5.18;;;;;;;;;;5077341;28;20028;-72
2022/07/17 05:24:07;;;;;;;10.02;5.03;;;;;;;;;;5080251;28;20065;-72
2022/07/17 05:26:32;;;;;;;8.90;4.72;;;;;;;;;;5077752;28;20021;-72
2022/07/17 05:28:57;;;;;;;7.20;4.60;;;;;;;;;;5083151;28;20027;-72
2022/07/17 05:31:23;;;;;;;8.88;4.63;;;;;;;;;;5074510;28;20033;-72
2022/07/17 05:33:49;;;;;;;8.25;5.07;;;;;;;;;;5084856;28;20529;-72
2022/07/17 05:36:14;;;;;;;10.38;4.95;;;;;;;;;;5081916;28;20021;-72
2022/07/17 05:38:39;;;;;;;8.63;4.45;;;;;;;;;;5082505;28;20070;-72
2022/07/17 05:41:05;;;;;;;7.13;3.88;;;;;;;;;;5077495;28;20047;-72
2022/07/17 05:43:30;;;;;;;8.15;4.43;;;;;;;;;;5076254;28;20070;-72
2022/07/17 05:45:56;;;;;;;6.80;4.35;;;;;;;;;;5077501;28;20104;-72
2022/07/17 05:48:22;;;;;;;7.57;4.03;;;;;;;;;;5075688;28;20052;-72
2022/07/17 05:50:47;;;;;;;6.88;4.13;;;;;;;;;;5076510;28;20060;-72
2022/07/17 05:53:14;;;;;;;6.43;4.07;;;;;;;;;;5077828;28;20147;-73
2022/07/17 05:55:39;;;;;;;5.65;3.80;;;;;;;;;;5073595;28;20074;-72
2022/07/17 05:58:04;;;;;;;5.55;3.53;;;;;;;;;;5082653;28;20023;-72
2022/07/17 06:00:30;;;;;;;5.75;3.90;;;;;;;;;;5082477;28;20052;-72
2022/07/17 06:02:55;;;;;;;5.97;3.83;;;;;;;;;;5081291;28;20074;-72
2022/07/17 06:05:20;;;;;;;5.88;4.05;;;;;;;;;;5074429;28;20099;-72
2022/07/17 06:07:45;;;;;;;5.80;3.90;;;;;;;;;;5082209;28;20463;-72
2022/07/17 06:10:11;;;;;;;6.45;3.92;;;;;;;;;;5088930;28;20096;-72
2022/07/17 06:12:36;;;;;;;5.80;3.90;;;;;;;;;;5076086;28;20444;-72
2022/07/17 06:15:01;;;;;;;5.35;3.67;;;;;;;;;;5072476;28;20021;-72
2022/07/17 06:17:28;;;;;;;5.97;4.15;;;;;;;;;;5073084;28;20110;-72
2022/07/17 06:19:53;;;;;;;5.50;3.47;;;;;;;;;;5075300;28;20039;-73
2022/07/17 06:22:19;;;;;;;5.82;3.80;;;;;;;;;;5078681;28;20033;-72
2022/07/17 06:24:45;;;;;;;6.18;3.85;;;;;;;;;;5076927;28;20051;-72
2022/07/17 06:27:10;;;;;;;11.77;4.30;;;;;;;;;;5084430;28;20082;-72
2022/07/17 06:29:35;;;;;;;4.68;3.70;;;;;;;;;;5081774;28;20464;-72
2022/07/17 06:32:00;;;;;;;5.93;4.18;;;;;;;;;;5084789;28;20024;-72
2022/07/17 06:34:26;;;;;;;5.40;3.80;;;;;;;;;;5079734;28;20012;-73
2022/07/17 06:36:51;;;;;;;6.32;4.47;;;;;;;;;;5079468;28;20376;-72
2022/07/17 06:39:16;;;;;;;6.22;4.38;;;;;;;;;;5079407;28;20059;-72
2022/07/17 06:41:42;;;;;;;6.00;4.18;;;;;;;;;;5074367;28;20116;-72
2022/07/17 06:44:07;;;;;;;9.60;4.10;;;;;;;;;;5073517;28;20052;-72
2022/07/17 06:46:33;;;;;;;5.25;3.58;;;;;;;;;;5083554;28;20456;-72
2022/07/17 06:48:58;;;;;;;8.15;3.78;;;;;;;;;;5078893;28;20016;-73
2022/07/17 06:51:23;;;;;;;5.45;3.72;;;;;;;;;;5093164;28;20032;-73
2022/07/17 06:53:49;;;;;;;6.20;4.05;;;;;;;;;;5083352;28;20040;-73
2022/07/17 06:56:14;;;;;;;5.32;4.13;;;;;;;;;;5078238;28;20021;-73
2022/07/17 06:58:39;;;;;;;7.65;4.40;;;;;;;;;;5079745;28;20024;-74
2022/07/17 07:01:05;;;;;;;7.97;4.15;;;;;;;;;;5072602;28;20395;-74
2022/07/17 07:03:30;;;;;;;4.88;3.80;;;;;;;;;;5077820;28;20397;-74
2022/07/17 07:05:55;;;;;;;5.80;4.10;;;;;;;;;;5077288;28;20475;-73
2022/07/17 07:08:20;;;;;;;5.53;3.90;;;;;;;;;;5076809;28;20032;-74
2022/07/17 07:10:46;;;;;;;7.28;3.95;;;;;;;;;;5082863;28;20471;-74
2022/07/17 07:13:12;;;;;;;6.95;3.60;;;;;;;;;;5086411;28;20020;-73
2022/07/17 07:15:37;;;;;;;5.38;3.70;;;;;;;;;;5089970;28;20063;-73
2022/07/17 07:18:03;;;;;;;5.63;3.42;;;;;;;;;;5079534;28;20012;-73
2022/07/17 07:20:28;;;;;;;5.57;3.70;;;;;;;;;;5064320;28;20115;-73
2022/07/17 07:22:54;;;;;;;6.60;4.32;;;;;;;;;;5073591;28;20185;-73
2022/07/17 07:25:19;;;;;;;6.20;4.53;;;;;;;;;;5072565;28;20025;-74
2022/07/17 07:27:44;;;;;;;7.60;4.72;;;;;;;;;;5091870;28;20515;-72
2022/07/17 07:30:10;;;;;;;8.05;5.25;;;;;;;;;;5081499;28;20527;-73
2022/07/17 07:32:36;;;;;;;7.28;4.28;;;;;;;;;;5088936;28;20024;-73
2022/07/17 07:35:02;;;;;;;6.68;4.32;;;;;;;;;;5073796;28;20044;-73
2022/07/17 07:37:27;;;;;;;8.80;4.63;;;;;;;;;;5063628;28;20110;-73
2022/07/17 07:39:52;;;;;;;10.52;4.97;;;;;;;;;;5073573;28;20059;-73
2022/07/17 07:42:18;;;;;;;9.10;5.32;;;;;;;;;;5076070;28;20082;-73
2022/07/17 07:44:43;;;;;;;7.95;5.00;;;;;;;;;;5071966;28;20029;-72
2022/07/17 07:47:08;;;;;;;9.50;5.10;;;;;;;;;;5074321;28;20021;-73
2022/07/17 07:49:33;;;;;;;12.60;5.93;;;;;;;;;;5072057;28;20033;-71
2022/07/17 07:51:59;;;;;;;11.43;5.50;;;;;;;;;;5076150;28;20094;-71
2022/07/17 07:54:24;;;;;;;14.40;5.60;;;;;;;;;;5061134;28;20020;-71
2022/07/17 07:56:49;;;;;;;11.00;5.68;;;;;;;;;;5073791;28;20024;-71
2022/07/17 07:59:14;;;;;;;9.68;5.43;;;;;;;;;;5081262;28;20044;-70
2022/07/17 08:01:40;;;;;;;10.13;5.68;;;;;;;;;;5084983;28;20059;-70
2022/07/17 08:04:05;;;;;;;11.35;5.75;;;;;;;;;;5090598;28;20423;-70
2022/07/17 08:06:30;;;;;;;8.38;5.50;;;;;;;;;;5094156;28;20032;-71
2022/07/17 08:08:56;;;;;;;10.88;5.28;;;;;;;;;;5088991;28;20432;-70
2022/07/17 08:11:21;;;;;;;9.68;5.55;;;;;;;;;;5091683;28;20024;-70
2022/07/17 08:13:46;;;;;;;10.40;5.55;;;;;;;;;;5091420;28;20032;-70
2022/07/17 08:16:12;;;;;;;11.95;5.30;;;;;;;;;;5095855;28;20368;-70
2022/07/17 08:18:37;;;;;;;12.20;5.53;;;;;;;;;;5082724;28;20035;-73
2022/07/17 08:21:02;;;;;;;8.93;5.10;;;;;;;;;;5078234;28;20064;-72
2022/07/17 08:23:28;;;;;;;10.25;5.25;;;;;;;;;;5091293;28;20103;-70
2022/07/17 08:25:53;;;;;;;9.05;4.80;;;;;;;;;;5095549;28;20039;-71
2022/07/17 08:28:18;;;;;;;11.27;5.22;;;;;;;;;;5079487;28;20037;-71
2022/07/17 08:30:43;;;;;;;10.25;4.95;;;;;;;;;;5059154;28;20028;-71
2022/07/17 08:33:09;;;;;;;9.57;4.57;;;;;;;;;;5082871;28;20452;-71
2022/07/17 08:35:35;;;;;;;12.73;5.13;;;;;;;;;;5086243;28;20035;-71
2022/07/17 08:38:01;;;;;;;11.50;4.43;;;;;;;;;;5089031;28;20036;-72
2022/07/17 08:40:28;;;;;;;10.13;4.68;;;;;;;;;;5077949;28;20087;-72
2022/07/17 08:42:54;;;;;;;7.43;4.30;;;;;;;;;;5079140;28;20047;-72
2022/07/17 08:45:20;;;;;;;8.60;4.07;;;;;;;;;;5079090;28;20031;-72
2022/07/17 08:47:45;;;;;;;8.15;4.38;;;;;;;;;;5086988;28;20020;-72
2022/07/17 08:50:12;;;;;;;8.27;4.38;;;;;;;;;;5082586;28;20043;-72
2022/07/17 08:52:38;;;;;;;9.98;3.90;;;;;;;;;;5084834;28;20098;-72
2022/07/17 08:55:04;;;;;;;9.55;3.60;;;;;;;;;;5080019;28;20024;-72
2022/07/17 08:57:29;;;;;;;7.50;3.65;;;;;;;;;;5083804;28;20433;-73
2022/07/17 08:59:55;;;;;;;7.03;3.55;;;;;;;;;;5078263;28;20024;-72
2022/07/17 09:02:21;;;;;;;8.93;3.40;;;;;;;;;;5088477;28;20055;-72
2022/07/17 09:04:53;;;;;;;7.32;3.47;;;;;;;;;;5070461;28;20047;-72
2022/07/17 09:07:18;;;;;;;6.25;3.15;;;;;;;;;;5071612;28;20028;-72
2022/07/17 09:09:49;;;;;;;6.72;3.40;;;;;;;;;;5084879;28;20025;-72
2022/07/17 09:12:14;;;;;;;6.75;2.95;;;;;;;;;;5082621;28;20048;-72
2022/07/17 09:14:41;;;;;;;6.15;3.55;;;;;;;;;;5081214;28;20025;-72
2022/07/17 09:17:07;;;;;;;6.35;3.35;;;;;;;;;;5082801;28;20052;-72
2022/07/17 09:19:37;;;;;;;9.10;3.65;;;;;;;;;;5083094;28;20028;-72
2022/07/17 09:22:13;;;;;;;5.25;3.05;;;;;;;;;;5081745;28;20063;-73
2022/07/17 09:24:40;;;;;;;7.47;3.00;;;;;;;;;;5088817;28;20024;-72
2022/07/17 09:27:06;;;;;;;7.28;3.08;;;;;;;;;;5091927;28;20024;-72
2022/07/17 09:29:31;;;;;;;7.80;3.10;;;;;;;;;;5075947;28;20424;-72
2022/07/17 09:31:56;;;;;;;5.32;2.90;;;;;;;;;;5087610;28;20463;-72
2022/07/17 09:34:23;;;;;;;9.05;3.17;;;;;;;;;;5075503;28;20028;-72
2022/07/17 09:36:58;;;;;;;4.45;2.45;;;;;;;;;;5079427;28;20363;-72
2022/07/17 09:39:33;;;;;;;6.75;2.50;;;;;;;;;;5064964;28;20044;-72
2022/07/17 09:41:58;;;;;;;5.43;2.58;;;;;;;;;;5077488;28;20542;-73
2022/07/17 09:44:23;;;;;;;4.32;2.28;;;;;;;;;;5092538;28;20055;-72
2022/07/17 09:46:50;;;;;;;7.32;2.33;;;;;;;;;;5078855;28;20036;-71
2022/07/17 09:49:16;;;;;;;5.97;2.20;;;;;;;;;;5079223;28;20021;-72
2022/07/17 09:51:41;;;;;;;8.90;2.67;;;;;;;;;;5080279;28;20036;-72
2022/07/17 09:54:07;;;;;;;10.75;2.38;;;;;;;;;;5083440;28;20040;-72
2022/07/17 09:56:34;;;;;;;7.13;2.25;;;;;;;;;;5091105;28;20032;-71
2022/07/17 09:59:01;;;;;;;5.85;2.22;;;;;;;;;;5092132;28;20028;-71
2022/07/17 10:01:27;;;;;;;10.43;2.35;;;;;;;;;;5085655;28;20032;-72
2022/07/17 10:03:53;;;;;;;10.27;2.30;;;;;;;;;;5086819;28;20463;-72
2022/07/17 10:06:19;;;;;;;5.28;2.08;;;;;;;;;;5089308;28;20032;-72
2022/07/17 10:08:44;;;;;;;6.60;1.95;;;;;;;;;;5083359;28;20551;-72
2022/07/17 10:11:10;;;;;;;6.15;1.92;;;;;;;;;;5089615;28;20379;-71
2022/07/17 10:13:39;;;;;;;4.35;2.10;;;;;;;;;;5087875;28;20074;-71
2022/07/17 10:16:05;;;;;;;8.93;2.20;;;;;;;;;;5069279;28;20043;-71
2022/07/17 10:18:41;;;;;;;4.70;2.10;;;;;;;;;;5087663;28;20020;-71
2022/07/17 10:21:10;;;;;;;5.25;1.98;;;;;;;;;;5090578;28;20036;-71
2022/07/17 10:23:36;;;;;;;4.63;2.00;;;;;;;;;;5085147;28;20024;-71
2022/07/17 10:26:01;;;;;;;5.07;2.25;;;;;;;;;;5093016;28;20012;-71
2022/07/17 10:28:43;;;;;;;5.30;2.05;;;;;;;;;;5078240;28;20031;-72
2022/07/17 10:31:09;;;;;;;6.93;2.08;;;;;;;;;;5076409;28;20059;-72
2022/07/17 10:33:35;;;;;;;8.30;2.20;;;;;;;;;;5075059;28;20024;-71
2022/07/17 10:36:00;;;;;;;4.07;1.80;;;;;;;;;;5077180;28;20038;-71
2022/07/17 10:38:26;;;;;;;5.28;2.13;;;;;;;;;;5084187;28;20024;-71
2022/07/17 10:41:01;;;;;;;9.68;1.95;;;;;;;;;;5074864;28;20032;-71
2022/07/17 10:43:27;;;;;;;6.38;1.95;;;;;;;;;;5074476;28;20063;-70
2022/07/17 10:45:52;;;;;;;7.60;2.00;;;;;;;;;;5085008;28;20051;-71
2022/07/17 10:48:19;;;;;;;4.40;2.17;;;;;;;;;;5087441;28;20070;-71
2022/07/17 10:50:45;;;;;;;3.33;1.80;;;;;;;;;;5083797;28;20158;-71
2022/07/17 10:53:10;;;;;;;7.82;2.05;;;;;;;;;;5076853;28;20496;-71
2022/07/17 10:55:37;;;;;;;7.50;1.60;;;;;;;;;;5085309;28;20495;-70
2022/07/17 10:58:03;;;;;;;9.07;1.83;;;;;;;;;;5081000;28;20008;-70
2022/07/17 11:00:28;;;;;;;5.45;1.73;;;;;;;;;;5083756;28;20028;-73
2022/07/17 11:02:54;;;;;;;9.13;1.90;;;;;;;;;;5088019;28;20047;-73
2022/07/17 11:05:19;;;;;;;7.25;1.67;;;;;;;;;;5085448;28;20529;-73
2022/07/17 11:07:55;;;;;;;7.88;1.75;;;;;;;;;;5087797;28;20020;-72
2022/07/17 11:10:21;;;;;;;6.55;1.63;;;;;;;;;;5090873;28;20028;-73
2022/07/17 11:12:47;;;;;;;6.13;1.70;;;;;;;;;;5082620;28;20021;-73
2022/07/17 11:15:13;;;;;;;6.50;1.73;;;;;;;;;;5079471;28;20391;-73
2022/07/17 11:17:38;;;;;;;4.05;1.70;;;;;;;;;;5077539;28;20044;-73
2022/07/17 11:20:04;;;;;;;3.20;1.80;;;;;;;;;;5075484;28;20055;-73
2022/07/17 11:22:29;;;;;;;4.55;1.50;;;;;;;;;;5085478;28;20034;-73
2022/07/17 11:24:55;;;;;;;4.03;1.50;;;;;;;;;;5083121;28;20520;-72
2022/07/17 11:27:22;;;;;;;5.55;1.85;;;;;;;;;;5078225;28;20040;-73
2022/07/17 11:29:48;;;;;;;7.32;1.90;;;;;;;;;;5065395;28;20115;-73
2022/07/17 11:32:13;;;;;;;5.90;2.13;;;;;;;;;;5085787;28;20063;-73
2022/07/17 11:34:38;;;;;;;3.72;1.70;;;;;;;;;;5083371;28;20440;-72
2022/07/17 11:37:05;;;;;;;7.38;1.70;;;;;;;;;;5079275;28;20032;-72
2022/07/17 11:39:43;;;;;;;4.70;1.85;;;;;;;;;;5079901;28;20399;-72
2022/07/17 11:42:18;;;;;;;5.00;1.50;;;;;;;;;;5078951;28;20048;-72
2022/07/17 11:44:44;;;;;;;4.82;1.85;;;;;;;;;;5084910;28;20063;-72
2022/07/17 11:47:10;;;;;;;3.10;1.58;;;;;;;;;;5076909;28;20056;-72
2022/07/17 11:49:37;;;;;;;5.25;1.58;;;;;;;;;;5076353;28;20503;-72
2022/07/17 11:52:09;;;;;;;5.28;1.65;;;;;;;;;;5084248;28;20081;-73
2022/07/17 11:54:51;;;;;;;7.32;1.85;;;;;;;;;;5077663;28;20028;-72
2022/07/17 11:57:17;;;;;;;3.90;1.70;;;;;;;;;;5084714;28;20035;-72
2022/07/17 11:59:43;;;;;;;3.78;1.60;;;;;;;;;;5090310;28;20024;-72
2022/07/17 12:02:09;;;;;;;6.38;1.58;;;;;;;;;;5081483;28;20557;-73
2022/07/17 12:04:34;;;;;;;5.97;1.85;;;;;;;;;;5080290;28;20549;-72
2022/07/17 12:07:00;;;;;;;3.45;1.80;;;;;;;;;;5082454;28;20033;-73
2022/07/17 12:09:33;;;;;;;3.58;1.73;;;;;;;;;;5079372;28;20032;-73
2022/07/17 12:11:59;;;;;;;4.53;2.08;;;;;;;;;;5083138;28;20524;-73
2022/07/17 12:14:24;;;;;;;2.70;1.50;;;;;;;;;;5087320;28;20071;-73
2022/07/17 12:16:50;;;;;;;5.03;1.80;;;;;;;;;;5084652;28;20021;-73
2022/07/17 12:19:18;;;;;;;4.85;1.92;;;;;;;;;;5089005;28;20020;-73
2022/07/17 12:21:46;;;;;;;4.85;1.85;;;;;;;;;;5087704;28;20028;-72
2022/07/17 12:24:17;;;;;;;5.03;1.98;;;;;;;;;;5082435;28;20561;-72
2022/07/17 12:26:42;;;;;;;7.82;1.90;;;;;;;;;;5084622;28;20404;-72
2022/07/17 12:29:08;;;;;;;6.05;2.00;;;;;;;;;;5075063;28;20025;-73
2022/07/17 12:31:33;;;;;;;5.75;1.80;;;;;;;;;;5077537;28;20052;-73
2022/07/17 12:33:59;;;;;;;5.43;1.75;;;;;;;;;;5083277;28;20027;-72
2022/07/17 12:36:24;;;;;;;3.58;1.83;;;;;;;;;;5084182;28;20070;-72
2022/07/17 12:38:50;;;;;;;4.40;1.80;;;;;;;;;;5081889;28;20480;-72
2022/07/17 12:41:15;;;;;;;7.03;1.50;;;;;;;;;;5077327;28;20036;-72
2022/07/17 12:43:42;;;;;;;3.67;1.65;;;;;;;;;;5073987;28;20503;-72
2022/07/17 12:46:08;;;;;;;3.40;1.70;;;;;;;;;;5077492;28;20032;-73
2022/07/17 12:48:34;;;;;;;4.57;1.75;;;;;;;;;;5080117;28;20032;-72
2022/07/17 12:51:00;;;;;;;10.15;1.80;;;;;;;;;;5077231;28;20423;-73
2022/07/17 12:53:25;;;;;;;7.60;1.65;;;;;;;;;;5085520;28;20078;-73
2022/07/17 12:55:50;;;;;;;6.95;2.47;;;;;;;;;;5077566;28;20025;-72
2022/07/17 12:58:16;;;;;;;5.70;1.70;;;;;;;;;;5085300;28;20480;-73
2022/07/17 13:00:41;;;;;;;4.90;1.58;;;;;;;;;;5079926;28;20073;-73
2022/07/17 13:03:06;;;;;;;4.95;1.70;;;;;;;;;;5077738;28;20396;-73
2022/07/17 13:05:32;;;;;;;6.15;1.80;;;;;;;;;;5075811;28;20024;-73
2022/07/17 13:07:57;;;;;;;4.47;1.55;;;;;;;;;;5079101;28;20063;-73
2022/07/17 13:10:22;;;;;;;2.63;1.52;;;;;;;;;;5075303;28;20028;-73
2022/07/17 13:12:48;;;;;;;2.97;1.63;;;;;;;;;;5083601;28;20027;-73
2022/07/17 13:15:13;;;;;;;4.05;1.85;;;;;;;;;;5078326;28;20482;-73
2022/07/17 13:17:38;;;;;;;5.90;1.88;;;;;;;;;;5076037;28;20491;-72
2022/07/17 13:20:04;;;;;;;4.63;1.70;;;;;;;;;;5081132;28;20023;-73
2022/07/17 13:22:30;;;;;;;3.30;1.77;;;;;;;;;;5089293;28;20036;-73
2022/07/17 13:24:55;;;;;;;4.60;2.00;;;;;;;;;;5080092;28;20456;-73
2022/07/17 13:27:20;;;;;;;5.07;1.70;;;;;;;;;;5083489;28;20078;-73
2022/07/17 13:29:46;;;;;;;4.93;1.60;;;;;;;;;;5080789;28;20103;-73
2022/07/17 13:32:11;;;;;;;4.75;1.60;;;;;;;;;;5074707;28;20058;-72
2022/07/17 13:34:37;;;;;;;8.70;1.80;;;;;;;;;;5079424;28;20019;-73
2022/07/17 13:37:02;;;;;;;5.72;1.95;;;;;;;;;;5080221;28;20037;-72
2022/07/17 13:39:28;;;;;;;3.72;1.60;;;;;;;;;;5081951;28;20044;-72
2022/07/17 13:41:53;;;;;;;3.53;1.52;;;;;;;;;;5074964;28;20047;-73
2022/07/17 13:44:18;;;;;;;3.10;1.60;;;;;;;;;;5089039;28;20067;-73
2022/07/17 13:46:44;;;;;;;5.07;1.77;;;;;;;;;;5078087;28;20036;-73
2022/07/17 13:49:09;;;;;;;5.53;1.65;;;;;;;;;;5075486;28;20025;-72
2022/07/17 13:51:34;;;;;;;7.07;1.80;;;;;;;;;;5083944;28;20036;-73
2022/07/17 13:54:00;;;;;;;4.43;1.80;;;;;;;;;;5085843;28;20182;-73
2022/07/17 13:56:25;;;;;;;5.28;1.90;;;;;;;;;;5075800;28;20491;-73
2022/07/17 13:58:50;;;;;;;5.00;1.98;;;;;;;;;;5080908;28;20027;-73
2022/07/17 14:01:16;;;;;;;3.00;1.52;;;;;;;;;;5085471;28;20468;-73
2022/07/17 14:03:41;;;;;;;5.20;1.90;;;;;;;;;;5080900;28;20023;-72
2022/07/17 14:06:07;;;;;;;5.22;2.00;;;;;;;;;;5056493;28;20029;-72
2022/07/17 14:08:32;;;;;;;4.93;1.75;;;;;;;;;;5069096;28;20033;-72
2022/07/17 14:10:58;;;;;;;6.38;1.77;;;;;;;;;;5078938;28;20082;-72
2022/07/17 14:13:23;;;;;;;4.32;2.00;;;;;;;;;;5070850;28;20194;-72
2022/07/17 14:15:48;;;;;;;2.78;1.60;;;;;;;;;;5074678;28;20032;-72
2022/07/17 14:18:14;;;;;;;4.43;1.63;;;;;;;;;;5077607;28;20089;-72
2022/07/17 14:20:39;;;;;;;6.45;1.70;;;;;;;;;;5080302;28;20376;-72
2022/07/17 14:23:04;;;;;;;5.43;1.67;;;;;;;;;;5073222;28;20044;-72
2022/07/17 14:25:30;;;;;;;3.33;1.80;;;;;;;;;;5074697;28;20104;-72
2022/07/17 14:27:55;;;;;;;5.35;1.80;;;;;;;;;;5072540;28;20107;-72
2022/07/17 14:30:20;;;;;;;4.30;1.95;;;;;;;;;;5072414;28;20029;-72